Time;durP1;ratioP1;P1;durP2;ratioP2;P2;SDS_P1;SDS_P2;PMS_P1;PMS_P2;Temp;Humidity;BMP_temperature;BMP_pressure;BME280_temperature;BME280_humidity;BME280_pressure;Samples;Min_cycle;Max_cycle;Signal;HPM_P1;HPM_P2
2022/10/07 00:01:46;;;;;;;4.57;2.70;;;;;;;;;;5106786;28;20382;-74
2022/10/07 00:04:12;;;;;;;8.13;2.43;;;;;;;;;;5095893;28;20171;-74
2022/10/07 00:06:37;;;;;;;6.47;2.53;;;;;;;;;;5093576;28;20180;-74
2022/10/07 00:09:02;;;;;;;2.90;2.30;;;;;;;;;;5102784;28;20229;-73
2022/10/07 00:11:28;;;;;;;4.57;2.10;;;;;;;;;;5101396;28;20191;-74
2022/10/07 00:13:54;;;;;;;4.70;2.67;;;;;;;;;;5095681;28;20183;-74
2022/10/07 00:16:25;;;;;;;5.23;2.33;;;;;;;;;;5104086;28;20264;-74
2022/10/07 00:18:51;;;;;;;6.17;2.40;;;;;;;;;;5105075;28;20184;-74
2022/10/07 00:21:17;;;;;;;4.13;2.13;;;;;;;;;;5098129;28;20245;-73
2022/10/07 00:23:42;;;;;;;7.27;2.10;;;;;;;;;;5096234;28;20176;-74
2022/10/07 00:26:09;;;;;;;4.57;2.40;;;;;;;;;;5105222;28;20184;-74
2022/10/07 00:28:35;;;;;;;7.73;2.93;;;;;;;;;;5102384;28;20270;-74
2022/10/07 00:31:01;;;;;;;5.43;2.60;;;;;;;;;;5097620;28;20184;-74
2022/10/07 00:33:31;;;;;;;4.57;2.50;;;;;;;;;;5101424;28;20184;-73
2022/10/07 00:35:56;;;;;;;6.00;3.03;;;;;;;;;;5096743;28;20172;-74
2022/10/07 00:38:21;;;;;;;3.70;2.50;;;;;;;;;;5098958;28;20203;-74
2022/10/07 00:40:46;;;;;;;5.13;2.70;;;;;;;;;;5094302;28;20272;-74
2022/10/07 00:43:18;;;;;;;6.73;2.67;;;;;;;;;;5095123;28;20203;-74
2022/10/07 00:45:43;;;;;;;3.23;2.33;;;;;;;;;;5103816;28;20228;-74
2022/10/07 00:48:08;;;;;;;2.50;2.30;;;;;;;;;;5103774;28;20241;-74
2022/10/07 00:50:33;;;;;;;4.10;2.63;;;;;;;;;;5102964;28;20215;-74
2022/10/07 00:53:00;;;;;;;8.67;2.80;;;;;;;;;;5097955;28;20176;-74
2022/10/07 00:55:27;;;;;;;5.93;3.33;;;;;;;;;;5100642;28;20197;-73
2022/10/07 00:57:54;;;;;;;6.03;2.77;;;;;;;;;;5094133;28;20192;-75
2022/10/07 01:00:22;;;;;;;5.27;2.40;;;;;;;;;;5095503;28;20300;-74
2022/10/07 01:02:47;;;;;;;4.27;2.50;;;;;;;;;;5098331;28;20203;-74
2022/10/07 01:05:13;;;;;;;3.50;2.03;;;;;;;;;;5096858;28;20173;-74
2022/10/07 01:07:38;;;;;;;5.10;2.03;;;;;;;;;;5094997;28;20176;-74
2022/10/07 01:10:04;;;;;;;7.30;2.30;;;;;;;;;;5095902;28;20207;-74
2022/10/07 01:12:47;;;;;;;4.30;2.13;;;;;;;;;;5102746;28;20256;-74
2022/10/07 01:15:29;;;;;;;5.83;2.20;;;;;;;;;;5100402;28;20207;-74
2022/10/07 01:18:07;;;;;;;3.30;1.83;;;;;;;;;;5101813;28;20263;-75
2022/10/07 01:21:02;;;;;;;4.33;2.10;;;;;;;;;;5099714;28;20269;-74
2022/10/07 01:23:30;;;;;;;5.20;2.30;;;;;;;;;;5086373;28;20211;-74
2022/10/07 01:26:11;;;;;;;4.50;2.30;;;;;;;;;;5109748;28;20179;-74
2022/10/07 01:28:39;;;;;;;4.40;2.00;;;;;;;;;;5123902;27;20277;-74
2022/10/07 01:31:06;;;;;;;2.50;2.20;;;;;;;;;;5108064;28;20187;-74
2022/10/07 01:33:32;;;;;;;5.40;2.30;;;;;;;;;;5115455;27;20212;-75
2022/10/07 01:36:02;;;;;;;2.83;2.10;;;;;;;;;;5106536;28;20186;-74
2022/10/07 01:38:28;;;;;;;3.97;2.40;;;;;;;;;;5106951;28;20186;-74
2022/10/07 01:41:11;;;;;;;4.70;2.37;;;;;;;;;;5106144;28;20179;-74
2022/10/07 01:43:37;;;;;;;3.30;2.27;;;;;;;;;;5104482;28;20296;-73
2022/10/07 01:46:05;;;;;;;9.87;3.47;;;;;;;;;;5103246;28;20184;-74
2022/10/07 01:48:31;;;;;;;4.33;2.40;;;;;;;;;;5105621;28;20191;-73
2022/10/07 01:50:58;;;;;;;7.97;2.73;;;;;;;;;;5107910;28;20196;-74
2022/10/07 01:53:43;;;;;;;5.37;2.67;;;;;;;;;;5109178;27;20318;-74
2022/10/07 01:56:08;;;;;;;5.00;2.60;;;;;;;;;;5100324;28;20242;-74
2022/10/07 01:58:43;;;;;;;4.27;3.37;;;;;;;;;;5104922;28;20181;-74
2022/10/07 02:01:23;;;;;;;4.87;2.63;;;;;;;;;;5099047;28;20231;-74
2022/10/07 02:04:07;;;;;;;6.90;2.53;;;;;;;;;;5098177;28;20192;-73
2022/10/07 02:06:36;;;;;;;6.77;2.53;;;;;;;;;;5106781;28;20198;-74
2022/10/07 02:09:05;;;;;;;6.17;2.70;;;;;;;;;;5108795;28;20172;-74
2022/10/07 02:11:32;;;;;;;3.33;2.40;;;;;;;;;;5101311;28;20185;-73
2022/10/07 02:14:19;;;;;;;6.97;2.83;;;;;;;;;;5107125;28;20176;-74
2022/10/07 02:16:55;;;;;;;3.77;2.23;;;;;;;;;;5099203;28;20201;-74
2022/10/07 02:19:32;;;;;;;5.10;2.37;;;;;;;;;;5100712;28;20178;-74
2022/10/07 02:22:00;;;;;;;4.10;2.30;;;;;;;;;;5091881;28;20210;-74
2022/10/07 02:24:27;;;;;;;6.53;2.63;;;;;;;;;;5097700;28;20211;-74
2022/10/07 02:26:54;;;;;;;5.40;2.23;;;;;;;;;;5104917;28;20233;-74
2022/10/07 02:29:20;;;;;;;6.23;2.67;;;;;;;;;;5106498;28;20178;-74
2022/10/07 02:31:47;;;;;;;5.80;3.10;;;;;;;;;;5106101;28;20253;-74
2022/10/07 02:34:16;;;;;;;6.63;3.30;;;;;;;;;;5099760;28;20173;-74
2022/10/07 02:36:49;;;;;;;6.60;2.77;;;;;;;;;;5100844;28;20183;-74
2022/10/07 02:39:14;;;;;;;3.27;2.30;;;;;;;;;;5107162;28;20203;-74
2022/10/07 02:41:48;;;;;;;4.63;2.80;;;;;;;;;;5098028;28;20227;-74
2022/10/07 02:44:28;;;;;;;4.40;2.10;;;;;;;;;;5105334;28;20175;-74
2022/10/07 02:47:03;;;;;;;3.37;2.40;;;;;;;;;;5098403;28;20205;-74
2022/10/07 02:49:30;;;;;;;5.27;2.27;;;;;;;;;;5101525;28;20187;-73
2022/10/07 02:52:00;;;;;;;4.40;2.47;;;;;;;;;;5103886;28;20199;-74
2022/10/07 02:54:31;;;;;;;7.63;3.27;;;;;;;;;;5097049;28;20203;-74
2022/10/07 02:56:57;;;;;;;5.67;3.20;;;;;;;;;;5103076;28;20203;-73
2022/10/07 02:59:23;;;;;;;3.70;2.53;;;;;;;;;;5097933;28;20223;-74
2022/10/07 03:01:52;;;;;;;3.60;2.70;;;;;;;;;;5100522;28;20203;-75
2022/10/07 03:04:18;;;;;;;4.17;2.77;;;;;;;;;;5101508;28;20176;-73
2022/10/07 03:06:43;;;;;;;4.67;2.70;;;;;;;;;;5105127;28;20173;-74
2022/10/07 03:09:08;;;;;;;3.53;2.50;;;;;;;;;;5105566;28;20210;-73
2022/10/07 03:11:35;;;;;;;3.13;2.40;;;;;;;;;;5098271;28;20215;-74
2022/10/07 03:14:00;;;;;;;6.20;2.83;;;;;;;;;;5105132;28;20182;-74
2022/10/07 03:16:25;;;;;;;4.83;3.00;;;;;;;;;;5100599;28;20187;-74
2022/10/07 03:18:51;;;;;;;6.70;2.97;;;;;;;;;;5107763;28;20184;-74
2022/10/07 03:21:16;;;;;;;8.10;2.77;;;;;;;;;;5101175;28;20207;-73
2022/10/07 03:23:41;;;;;;;5.30;2.90;;;;;;;;;;5100346;28;20270;-74
2022/10/07 03:26:06;;;;;;;3.20;2.50;;;;;;;;;;5100251;28;20174;-74
2022/10/07 03:28:34;;;;;;;6.27;2.80;;;;;;;;;;5110341;28;21124;-74
2022/10/07 03:31:03;;;;;;;6.23;2.60;;;;;;;;;;5099146;28;20187;-74
2022/10/07 03:33:28;;;;;;;5.07;2.70;;;;;;;;;;5102292;28;20188;-73
2022/10/07 03:35:54;;;;;;;5.53;2.43;;;;;;;;;;5102983;28;20187;-74
2022/10/07 03:38:19;;;;;;;7.97;2.67;;;;;;;;;;5106078;28;20173;-73
2022/10/07 03:40:44;;;;;;;7.43;2.73;;;;;;;;;;5102220;28;20183;-73
2022/10/07 03:43:09;;;;;;;4.90;3.37;;;;;;;;;;5097899;28;20290;-73
2022/10/07 03:45:41;;;;;;;4.57;2.70;;;;;;;;;;5096423;28;20179;-74
2022/10/07 03:48:06;;;;;;;4.57;2.83;;;;;;;;;;5099318;28;20171;-74
2022/10/07 03:50:33;;;;;;;5.13;2.53;;;;;;;;;;5100883;28;20252;-74
2022/10/07 03:52:58;;;;;;;3.90;2.80;;;;;;;;;;5102187;27;20254;-74
2022/10/07 03:55:23;;;;;;;5.03;2.90;;;;;;;;;;5105677;28;20248;-74
2022/10/07 03:57:48;;;;;;;4.00;2.47;;;;;;;;;;5097737;28;20197;-73
2022/10/07 04:00:14;;;;;;;4.40;2.83;;;;;;;;;;5099214;28;20227;-74
2022/10/07 04:02:39;;;;;;;8.10;3.10;;;;;;;;;;5103595;28;20289;-74
2022/10/07 04:05:04;;;;;;;5.90;3.00;;;;;;;;;;5104364;28;20183;-74
2022/10/07 04:07:29;;;;;;;6.27;2.70;;;;;;;;;;5102390;28;20316;-74
2022/10/07 04:09:54;;;;;;;5.13;2.70;;;;;;;;;;5093924;28;20170;-74
2022/10/07 04:12:20;;;;;;;2.93;2.63;;;;;;;;;;5101166;28;20183;-73
2022/10/07 04:14:45;;;;;;;6.93;3.23;;;;;;;;;;5102219;28;20191;-73
2022/10/07 04:17:10;;;;;;;4.63;2.67;;;;;;;;;;5103376;28;20189;-73
2022/10/07 04:19:36;;;;;;;8.30;4.33;;;;;;;;;;5097674;28;20472;-74
2022/10/07 04:22:01;;;;;;;5.33;3.23;;;;;;;;;;5094506;28;20222;-74
2022/10/07 04:24:26;;;;;;;5.10;2.67;;;;;;;;;;5099433;28;20256;-74
2022/10/07 04:26:51;;;;;;;5.13;3.50;;;;;;;;;;5102698;28;20175;-73
2022/10/07 04:29:17;;;;;;;3.93;3.00;;;;;;;;;;5099735;28;20168;-73
2022/10/07 04:31:42;;;;;;;5.00;3.03;;;;;;;;;;5097342;28;20326;-73
2022/10/07 04:34:07;;;;;;;6.23;3.23;;;;;;;;;;5093387;28;20176;-74
2022/10/07 04:36:32;;;;;;;7.93;4.53;;;;;;;;;;5103860;28;20190;-74
2022/10/07 04:38:58;;;;;;;4.83;3.43;;;;;;;;;;5105452;28;20206;-75
2022/10/07 04:41:23;;;;;;;4.90;3.33;;;;;;;;;;5105821;28;20196;-74
2022/10/07 04:43:51;;;;;;;3.93;3.00;;;;;;;;;;5098279;28;20208;-74
2022/10/07 04:46:16;;;;;;;3.63;3.23;;;;;;;;;;5091688;28;20194;-74
2022/10/07 04:48:42;;;;;;;5.87;3.40;;;;;;;;;;5096880;28;20175;-73
2022/10/07 04:51:08;;;;;;;4.60;3.17;;;;;;;;;;5106428;28;20197;-73
2022/10/07 04:53:34;;;;;;;4.40;3.10;;;;;;;;;;5105797;28;20186;-74
2022/10/07 04:55:59;;;;;;;5.03;3.43;;;;;;;;;;5100691;28;20178;-74
2022/10/07 04:58:25;;;;;;;5.47;3.83;;;;;;;;;;5105906;28;20177;-74
2022/10/07 05:00:51;;;;;;;6.67;3.83;;;;;;;;;;5097910;28;20323;-74
2022/10/07 05:03:18;;;;;;;8.20;5.17;;;;;;;;;;5100938;28;20263;-73
2022/10/07 05:05:44;;;;;;;8.53;4.60;;;;;;;;;;5105523;28;20184;-74
2022/10/07 05:08:11;;;;;;;10.27;5.50;;;;;;;;;;5110491;28;20183;-74
2022/10/07 05:10:37;;;;;;;6.17;5.40;;;;;;;;;;5093521;28;20219;-74
2022/10/07 05:13:03;;;;;;;13.23;6.23;;;;;;;;;;5110552;28;20177;-74
2022/10/07 05:15:28;;;;;;;8.80;5.70;;;;;;;;;;5105136;28;20195;-73
2022/10/07 05:17:54;;;;;;;10.07;7.23;;;;;;;;;;5107439;28;20216;-73
2022/10/07 05:20:20;;;;;;;7.73;6.07;;;;;;;;;;5108396;28;20192;-73
2022/10/07 05:22:45;;;;;;;9.60;7.47;;;;;;;;;;5110078;28;20190;-73
2022/10/07 05:25:10;;;;;;;8.40;6.47;;;;;;;;;;5103059;28;20196;-74
2022/10/07 05:27:36;;;;;;;9.00;7.83;;;;;;;;;;5104093;28;20171;-74
2022/10/07 05:30:01;;;;;;;8.63;7.47;;;;;;;;;;5109741;28;20261;-73
2022/10/07 05:32:26;;;;;;;10.07;7.67;;;;;;;;;;5106598;28;20194;-73
2022/10/07 05:34:52;;;;;;;10.67;7.03;;;;;;;;;;5106493;28;20341;-74
2022/10/07 05:37:17;;;;;;;12.30;6.77;;;;;;;;;;5105110;28;20191;-73
2022/10/07 05:39:42;;;;;;;13.30;7.43;;;;;;;;;;5099110;28;20242;-73
2022/10/07 05:42:08;;;;;;;11.20;8.07;;;;;;;;;;5106049;28;20412;-74
2022/10/07 05:44:33;;;;;;;13.10;8.03;;;;;;;;;;5113995;28;20248;-73
2022/10/07 05:46:58;;;;;;;12.40;8.90;;;;;;;;;;5108903;28;20190;-74
2022/10/07 05:49:24;;;;;;;15.77;9.27;;;;;;;;;;5112501;28;20185;-73
2022/10/07 05:51:50;;;;;;;12.33;9.03;;;;;;;;;;5104253;28;20191;-73
2022/10/07 05:54:15;;;;;;;15.13;8.17;;;;;;;;;;5112136;27;20179;-73
2022/10/07 05:56:41;;;;;;;12.70;9.30;;;;;;;;;;5098902;28;20187;-73
2022/10/07 05:59:06;;;;;;;12.07;8.60;;;;;;;;;;5099935;27;20173;-73
2022/10/07 06:01:31;;;;;;;17.60;9.93;;;;;;;;;;5113740;27;20191;-74
2022/10/07 06:03:57;;;;;;;12.57;9.70;;;;;;;;;;5128033;27;20202;-73
2022/10/07 06:06:23;;;;;;;12.40;8.33;;;;;;;;;;5106561;27;20216;-74
2022/10/07 06:08:52;;;;;;;12.37;9.00;;;;;;;;;;5103594;27;20183;-73
2022/10/07 06:14:01;;;;;;;12.00;8.40;;;;;;;;;;5122045;27;20243;-73
2022/10/07 06:16:26;;;;;;;15.20;9.30;;;;;;;;;;5111988;27;20184;-73
2022/10/07 06:18:52;;;;;;;12.03;8.77;;;;;;;;;;5105133;27;20187;-75
2022/10/07 06:21:28;;;;;;;11.23;8.27;;;;;;;;;;5101422;27;20258;-74
2022/10/07 06:23:54;;;;;;;11.70;8.70;;;;;;;;;;5106660;27;20229;-73
2022/10/07 06:26:20;;;;;;;13.40;9.00;;;;;;;;;;5106532;27;20175;-73
2022/10/07 06:28:46;;;;;;;13.20;8.70;;;;;;;;;;5100624;28;20186;-74
2022/10/07 06:31:12;;;;;;;11.30;9.33;;;;;;;;;;5125341;27;20174;-73
2022/10/07 06:33:37;;;;;;;10.80;9.00;;;;;;;;;;5132761;27;20226;-73
2022/10/07 06:36:10;;;;;;;11.90;10.57;;;;;;;;;;5110265;27;20265;-74
2022/10/07 06:38:35;;;;;;;10.03;8.40;;;;;;;;;;5104508;27;20227;-73
2022/10/07 06:41:02;;;;;;;9.43;8.43;;;;;;;;;;5121007;27;20261;-73
2022/10/07 06:43:28;;;;;;;10.83;9.17;;;;;;;;;;5115402;27;20190;-73
2022/10/07 06:45:57;;;;;;;12.27;9.03;;;;;;;;;;5098645;27;20179;-73
2022/10/07 06:48:23;;;;;;;15.00;10.17;;;;;;;;;;5105689;28;20241;-73
2022/10/07 06:50:49;;;;;;;12.40;9.70;;;;;;;;;;5099740;27;20259;-73
2022/10/07 06:53:14;;;;;;;11.37;9.40;;;;;;;;;;5118272;27;20248;-73
2022/10/07 06:55:39;;;;;;;12.03;9.80;;;;;;;;;;5129385;27;20191;-73
2022/10/07 06:58:05;;;;;;;15.67;10.47;;;;;;;;;;5112468;27;20212;-74
2022/10/07 07:00:30;;;;;;;15.20;9.07;;;;;;;;;;5091924;28;20220;-74
2022/10/07 07:03:00;;;;;;;12.60;9.70;;;;;;;;;;5099006;28;20214;-74
2022/10/07 07:05:25;;;;;;;10.13;8.67;;;;;;;;;;5095385;28;20179;-74
2022/10/07 07:07:51;;;;;;;11.53;8.57;;;;;;;;;;5102389;28;20173;-74
2022/10/07 07:10:16;;;;;;;14.23;9.47;;;;;;;;;;5102006;28;20173;-74
2022/10/07 07:12:41;;;;;;;13.43;8.93;;;;;;;;;;5110096;28;20173;-73
2022/10/07 07:15:07;;;;;;;11.90;8.43;;;;;;;;;;5101755;28;20219;-73
2022/10/07 07:17:32;;;;;;;14.97;9.83;;;;;;;;;;5105319;28;20184;-73
2022/10/07 07:19:57;;;;;;;12.67;9.03;;;;;;;;;;5103580;28;20180;-74
2022/10/07 07:22:22;;;;;;;12.90;9.50;;;;;;;;;;5104471;28;20221;-74
2022/10/07 07:24:48;;;;;;;9.50;8.50;;;;;;;;;;5103289;28;20173;-74
2022/10/07 07:27:14;;;;;;;9.67;7.17;;;;;;;;;;5098520;28;20179;-74
2022/10/07 07:29:40;;;;;;;9.83;7.83;;;;;;;;;;5104342;28;20174;-74
2022/10/07 07:32:07;;;;;;;12.97;8.10;;;;;;;;;;5094149;28;20183;-74
2022/10/07 07:34:35;;;;;;;10.53;7.80;;;;;;;;;;5108790;28;20187;-73
2022/10/07 07:37:00;;;;;;;8.27;7.27;;;;;;;;;;5097109;28;20185;-74
2022/10/07 07:39:25;;;;;;;9.17;7.53;;;;;;;;;;5103039;28;20190;-74
2022/10/07 07:41:51;;;;;;;11.77;6.63;;;;;;;;;;5096077;28;20180;-74
2022/10/07 07:44:17;;;;;;;9.70;8.03;;;;;;;;;;5099974;28;20172;-73
2022/10/07 07:46:44;;;;;;;9.47;6.50;;;;;;;;;;5106289;28;20215;-74
2022/10/07 07:49:11;;;;;;;8.10;7.30;;;;;;;;;;5101883;28;20191;-73
2022/10/07 07:51:36;;;;;;;9.80;8.17;;;;;;;;;;5097940;28;20194;-73
2022/10/07 07:54:01;;;;;;;9.33;6.80;;;;;;;;;;5108241;27;20183;-73
2022/10/07 07:56:32;;;;;;;9.17;6.63;;;;;;;;;;5097937;28;20173;-74
2022/10/07 07:58:58;;;;;;;8.37;6.80;;;;;;;;;;5095870;28;20177;-73
2022/10/07 08:01:23;;;;;;;7.80;6.60;;;;;;;;;;5098240;28;20289;-73
2022/10/07 08:03:49;;;;;;;9.63;7.10;;;;;;;;;;5098463;28;20201;-73
2022/10/07 08:06:16;;;;;;;7.50;6.53;;;;;;;;;;5094407;28;20258;-73
2022/10/07 08:08:44;;;;;;;9.30;5.83;;;;;;;;;;5096142;28;20177;-74
2022/10/07 08:11:11;;;;;;;10.13;6.60;;;;;;;;;;5099516;28;20192;-73
2022/10/07 08:13:38;;;;;;;7.97;6.30;;;;;;;;;;5099572;28;20181;-73
2022/10/07 08:16:03;;;;;;;12.60;7.70;;;;;;;;;;5097944;28;20182;-73
2022/10/07 08:18:29;;;;;;;9.37;5.47;;;;;;;;;;5104391;28;20178;-74
2022/10/07 08:20:58;;;;;;;6.53;5.93;;;;;;;;;;5091987;28;20202;-74
2022/10/07 08:23:25;;;;;;;10.10;6.47;;;;;;;;;;5096274;28;20220;-73
2022/10/07 08:25:54;;;;;;;8.67;6.50;;;;;;;;;;5100891;28;20180;-73
2022/10/07 08:28:19;;;;;;;8.03;6.37;;;;;;;;;;5103194;28;20192;-73
2022/10/07 08:30:45;;;;;;;8.23;6.53;;;;;;;;;;5110682;28;20180;-74
2022/10/07 08:33:10;;;;;;;7.27;6.50;;;;;;;;;;5098163;28;20199;-73
2022/10/07 08:35:35;;;;;;;7.37;6.60;;;;;;;;;;5098734;28;20182;-74
2022/10/07 08:38:00;;;;;;;11.07;7.97;;;;;;;;;;5100892;28;20185;-74
2022/10/07 08:40:26;;;;;;;7.47;5.40;;;;;;;;;;5103734;28;20197;-73
2022/10/07 08:42:52;;;;;;;9.30;5.90;;;;;;;;;;5100624;28;20336;-74
2022/10/07 08:45:30;;;;;;;10.63;6.00;;;;;;;;;;5098050;28;20178;-74
2022/10/07 08:47:57;;;;;;;7.37;6.30;;;;;;;;;;5099408;28;20309;-74
2022/10/07 08:50:30;;;;;;;5.90;5.33;;;;;;;;;;5108920;28;20234;-74
2022/10/07 08:52:58;;;;;;;10.50;6.50;;;;;;;;;;5103488;28;20291;-74
2022/10/07 08:55:37;;;;;;;7.27;5.77;;;;;;;;;;5096042;28;20185;-74
2022/10/07 08:58:18;;;;;;;7.67;5.57;;;;;;;;;;5096942;28;20243;-74
2022/10/07 09:00:46;;;;;;;7.10;6.30;;;;;;;;;;5112063;28;20281;-74
2022/10/07 09:03:12;;;;;;;8.00;5.47;;;;;;;;;;5097399;28;20190;-73
2022/10/07 09:05:39;;;;;;;6.57;5.63;;;;;;;;;;5101495;28;20231;-73
2022/10/07 09:08:13;;;;;;;10.47;6.73;;;;;;;;;;5098927;28;20168;-74
2022/10/07 09:10:43;;;;;;;18.63;6.43;;;;;;;;;;5119433;28;20180;-74
2022/10/07 09:13:12;;;;;;;8.03;5.43;;;;;;;;;;5102028;28;20271;-74
2022/10/07 09:15:57;;;;;;;8.00;5.83;;;;;;;;;;5106096;28;20180;-74
2022/10/07 09:18:32;;;;;;;13.30;5.90;;;;;;;;;;5105930;28;20178;-73
2022/10/07 09:20:57;;;;;;;6.67;5.27;;;;;;;;;;5099598;28;20180;-74
2022/10/07 09:23:24;;;;;;;9.73;5.70;;;;;;;;;;5116850;28;20222;-74
2022/10/07 09:25:50;;;;;;;7.50;6.17;;;;;;;;;;5101695;28;20177;-73
2022/10/07 09:28:17;;;;;;;8.30;5.47;;;;;;;;;;5100637;28;20287;-74
2022/10/07 09:30:43;;;;;;;6.50;5.33;;;;;;;;;;5118159;28;20258;-73
2022/10/07 09:33:16;;;;;;;8.70;5.70;;;;;;;;;;5096833;28;20244;-74
2022/10/07 09:35:44;;;;;;;7.40;5.93;;;;;;;;;;5097505;28;20172;-74
2022/10/07 09:38:09;;;;;;;8.47;5.73;;;;;;;;;;5098513;28;20452;-74
2022/10/07 09:43:30;;;;;;;7.30;5.93;;;;;;;;;;5121200;27;20203;-74
2022/10/07 09:45:56;;;;;;;6.03;5.03;;;;;;;;;;5108280;27;20207;-74
2022/10/07 09:48:32;;;;;;;7.87;5.57;;;;;;;;;;5108572;27;20201;-74
2022/10/07 09:51:11;;;;;;;7.80;5.47;;;;;;;;;;5110636;27;20278;-74
2022/10/07 09:53:52;;;;;;;5.33;4.83;;;;;;;;;;5112926;27;20182;-74
2022/10/07 09:56:31;;;;;;;5.47;4.97;;;;;;;;;;5120138;27;20186;-74
2022/10/07 09:59:13;;;;;;;6.30;5.50;;;;;;;;;;5112353;27;20207;-74
2022/10/07 10:01:40;;;;;;;7.70;4.80;;;;;;;;;;5100130;27;20201;-74
2022/10/07 10:04:13;;;;;;;6.03;5.47;;;;;;;;;;5108374;27;20186;-75
2022/10/07 10:06:44;;;;;;;6.83;5.47;;;;;;;;;;5126512;27;20218;-74
2022/10/07 10:09:09;;;;;;;7.67;4.93;;;;;;;;;;5111872;27;20180;-75
2022/10/07 10:11:35;;;;;;;6.53;4.97;;;;;;;;;;5116643;27;20257;-74
2022/10/07 10:14:20;;;;;;;8.40;5.27;;;;;;;;;;5125093;27;20251;-74
2022/10/07 10:16:45;;;;;;;5.83;5.33;;;;;;;;;;5117359;27;20400;-75
2022/10/07 10:19:24;;;;;;;8.00;5.30;;;;;;;;;;5104630;27;20247;-74
2022/10/07 10:21:50;;;;;;;7.13;5.40;;;;;;;;;;5100790;28;20177;-74
2022/10/07 10:24:16;;;;;;;8.80;5.60;;;;;;;;;;5103048;27;20192;-74
2022/10/07 10:26:56;;;;;;;6.20;5.57;;;;;;;;;;5125177;27;20182;-74
2022/10/07 10:29:27;;;;;;;5.07;4.57;;;;;;;;;;5122661;27;20222;-74
2022/10/07 10:31:52;;;;;;;7.53;5.33;;;;;;;;;;5107264;28;20225;-74
2022/10/07 10:34:39;;;;;;;5.63;5.03;;;;;;;;;;5107656;27;20207;-75
2022/10/07 10:37:11;;;;;;;7.27;5.13;;;;;;;;;;5089396;27;20210;-75
2022/10/07 10:39:56;;;;;;;6.10;5.50;;;;;;;;;;5101520;28;20176;-74
2022/10/07 10:42:25;;;;;;;9.10;5.37;;;;;;;;;;5106924;27;20199;-74
2022/10/07 10:45:02;;;;;;;7.03;5.23;;;;;;;;;;5122863;27;20178;-75
2022/10/07 10:47:35;;;;;;;8.07;5.23;;;;;;;;;;5107472;27;20170;-74
2022/10/07 10:50:11;;;;;;;5.87;5.37;;;;;;;;;;5106275;27;20178;-74
2022/10/07 10:52:59;;;;;;;8.73;5.63;;;;;;;;;;5119269;27;20183;-74
2022/10/07 10:55:24;;;;;;;6.90;5.70;;;;;;;;;;5106108;27;20195;-74
2022/10/07 10:58:00;;;;;;;5.77;5.27;;;;;;;;;;5104490;27;20217;-74
2022/10/07 11:00:31;;;;;;;9.50;6.73;;;;;;;;;;5102343;28;20258;-74
2022/10/07 11:03:04;;;;;;;7.77;5.67;;;;;;;;;;5095912;28;20242;-75
2022/10/07 11:05:36;;;;;;;10.90;5.90;;;;;;;;;;5105396;28;20172;-74
2022/10/07 11:08:07;;;;;;;8.50;5.27;;;;;;;;;;5103868;28;20186;-74
2022/10/07 11:10:35;;;;;;;9.13;4.60;;;;;;;;;;5099088;28;20189;-74
2022/10/07 11:13:13;;;;;;;6.43;4.37;;;;;;;;;;5101850;28;20189;-74
2022/10/07 11:15:41;;;;;;;6.57;4.83;;;;;;;;;;5097946;28;20190;-75
2022/10/07 11:18:10;;;;;;;6.63;4.93;;;;;;;;;;5104323;28;20232;-74
2022/10/07 11:20:37;;;;;;;11.17;5.00;;;;;;;;;;5102800;28;20187;-74
2022/10/07 11:23:12;;;;;;;8.30;3.90;;;;;;;;;;5092192;28;20246;-74
2022/10/07 11:25:43;;;;;;;6.50;4.90;;;;;;;;;;5103142;28;20187;-76
2022/10/07 11:28:15;;;;;;;6.37;4.27;;;;;;;;;;5100481;28;20184;-74
2022/10/07 11:30:53;;;;;;;7.77;4.13;;;;;;;;;;5100911;28;20248;-74
2022/10/07 11:33:27;;;;;;;7.73;4.03;;;;;;;;;;5108945;28;20189;-74
2022/10/07 11:35:56;;;;;;;6.00;3.63;;;;;;;;;;5099484;28;20177;-74
2022/10/07 11:38:24;;;;;;;7.10;4.20;;;;;;;;;;5109262;28;20206;-75
2022/10/07 11:40:53;;;;;;;7.60;4.27;;;;;;;;;;5103968;28;20212;-74
2022/10/07 11:43:24;;;;;;;6.73;4.10;;;;;;;;;;5104145;28;20239;-74
2022/10/07 11:46:09;;;;;;;6.50;4.53;;;;;;;;;;5106781;27;20174;-73
2022/10/07 11:48:49;;;;;;;6.90;3.97;;;;;;;;;;5104935;28;20233;-74
2022/10/07 11:51:19;;;;;;;4.67;3.63;;;;;;;;;;5099693;28;20222;-74
2022/10/07 11:53:44;;;;;;;6.23;3.63;;;;;;;;;;5108717;27;20180;-74
2022/10/07 11:56:19;;;;;;;5.87;4.03;;;;;;;;;;5098590;28;20242;-74
2022/10/07 11:58:45;;;;;;;6.80;3.97;;;;;;;;;;5093650;28;20184;-74
2022/10/07 12:01:27;;;;;;;7.37;4.13;;;;;;;;;;5081946;28;20537;-74
2022/10/07 12:03:53;;;;;;;9.73;4.30;;;;;;;;;;5076436;28;20196;-75
2022/10/07 12:06:19;;;;;;;6.33;3.50;;;;;;;;;;5079046;28;20249;-74
2022/10/07 12:08:44;;;;;;;7.27;3.80;;;;;;;;;;5080920;28;20267;-74
2022/10/07 12:11:09;;;;;;;6.93;4.50;;;;;;;;;;5073354;28;20179;-74
2022/10/07 12:13:35;;;;;;;7.10;3.93;;;;;;;;;;5075053;28;20196;-74
2022/10/07 12:16:20;;;;;;;8.27;4.57;;;;;;;;;;5085667;28;20185;-74
2022/10/07 12:19:06;;;;;;;8.90;3.83;;;;;;;;;;5077293;28;20199;-75
2022/10/07 12:21:50;;;;;;;5.37;4.20;;;;;;;;;;5071076;28;20177;-74
2022/10/07 12:24:15;;;;;;;5.90;4.20;;;;;;;;;;5079284;28;20190;-74
2022/10/07 12:26:43;;;;;;;8.20;4.37;;;;;;;;;;5083180;28;20238;-74
2022/10/07 12:29:18;;;;;;;9.70;4.60;;;;;;;;;;5074973;28;20188;-73
2022/10/07 12:31:45;;;;;;;10.00;5.00;;;;;;;;;;5076656;28;20195;-74
2022/10/07 12:34:10;;;;;;;6.47;4.83;;;;;;;;;;5075724;28;20187;-73
2022/10/07 12:36:38;;;;;;;6.33;3.70;;;;;;;;;;5086654;28;20271;-74
2022/10/07 12:39:03;;;;;;;7.77;4.57;;;;;;;;;;5079967;28;20189;-74
2022/10/07 12:41:38;;;;;;;12.57;6.20;;;;;;;;;;5075394;28;20180;-74
2022/10/07 12:44:15;;;;;;;6.23;4.23;;;;;;;;;;5090623;28;20523;-74
2022/10/07 12:46:59;;;;;;;4.77;4.27;;;;;;;;;;5076152;28;20183;-74
2022/10/07 12:49:35;;;;;;;8.80;5.10;;;;;;;;;;5096205;28;20276;-74
2022/10/07 12:52:05;;;;;;;7.23;5.57;;;;;;;;;;5078346;28;20211;-74
2022/10/07 12:54:36;;;;;;;6.10;4.80;;;;;;;;;;5079859;28;20179;-74
2022/10/07 12:57:02;;;;;;;7.60;5.00;;;;;;;;;;5069622;28;20189;-74
2022/10/07 12:59:51;;;;;;;6.67;5.13;;;;;;;;;;5092844;28;20294;-75
2022/10/07 13:02:20;;;;;;;7.33;5.30;;;;;;;;;;5105324;28;20268;-74
2022/10/07 13:04:57;;;;;;;6.07;5.47;;;;;;;;;;5108069;28;20167;-74
2022/10/07 13:07:43;;;;;;;6.17;5.43;;;;;;;;;;5106655;28;20195;-74
2022/10/07 13:10:22;;;;;;;7.73;5.03;;;;;;;;;;5115344;28;20170;-74
2022/10/07 13:12:50;;;;;;;8.77;4.97;;;;;;;;;;5107327;28;20179;-74
2022/10/07 13:15:20;;;;;;;8.87;5.13;;;;;;;;;;5120100;28;20179;-74
2022/10/07 13:18:04;;;;;;;7.90;6.03;;;;;;;;;;5107782;27;20187;-75
2022/10/07 13:20:40;;;;;;;13.83;5.77;;;;;;;;;;5107297;27;20180;-74
2022/10/07 13:23:11;;;;;;;7.17;4.87;;;;;;;;;;5107247;27;20236;-75
2022/10/07 13:25:41;;;;;;;6.10;4.53;;;;;;;;;;5112949;27;20174;-73
2022/10/07 13:28:12;;;;;;;7.50;4.93;;;;;;;;;;5101590;27;20235;-74
2022/10/07 13:30:39;;;;;;;7.10;5.03;;;;;;;;;;5107388;27;20208;-74
2022/10/07 13:33:11;;;;;;;7.53;4.50;;;;;;;;;;5108849;27;20272;-74
2022/10/07 13:35:36;;;;;;;14.47;5.53;;;;;;;;;;5098295;28;20174;-74
2022/10/07 13:38:01;;;;;;;5.17;4.27;;;;;;;;;;5101113;27;20241;-74
2022/10/07 13:40:34;;;;;;;5.17;4.20;;;;;;;;;;5107515;27;20181;-74
2022/10/07 13:43:00;;;;;;;8.03;4.97;;;;;;;;;;5100112;27;20202;-75
2022/10/07 13:45:26;;;;;;;7.30;4.13;;;;;;;;;;5115053;27;20169;-74
2022/10/07 13:47:51;;;;;;;6.27;4.53;;;;;;;;;;5095478;27;20188;-74
2022/10/07 13:50:18;;;;;;;6.00;4.83;;;;;;;;;;5111569;27;20266;-74
2022/10/07 13:52:45;;;;;;;6.10;4.13;;;;;;;;;;5096056;27;20271;-74
2022/10/07 13:55:29;;;;;;;8.43;4.30;;;;;;;;;;5120655;27;20182;-74
2022/10/07 13:57:56;;;;;;;6.23;4.67;;;;;;;;;;5102467;27;20182;-74
2022/10/07 14:00:21;;;;;;;8.20;5.27;;;;;;;;;;5118238;27;20244;-75
2022/10/07 14:02:49;;;;;;;8.07;5.33;;;;;;;;;;5096706;27;20202;-74
2022/10/07 14:05:19;;;;;;;7.50;4.63;;;;;;;;;;5113007;27;20262;-74
2022/10/07 14:07:44;;;;;;;10.30;5.20;;;;;;;;;;5100580;27;20273;-74
2022/10/07 14:10:12;;;;;;;11.47;4.83;;;;;;;;;;5117449;27;20255;-75
2022/10/07 14:12:37;;;;;;;9.50;4.77;;;;;;;;;;5098964;28;20205;-74
2022/10/07 14:15:05;;;;;;;6.60;5.90;;;;;;;;;;5101690;27;20188;-74
2022/10/07 14:17:36;;;;;;;9.30;5.50;;;;;;;;;;5100106;27;20179;-74
2022/10/07 14:20:04;;;;;;;8.70;5.33;;;;;;;;;;5117621;27;20183;-74
2022/10/07 14:22:32;;;;;;;5.07;4.30;;;;;;;;;;5117269;27;20204;-74
2022/10/07 14:25:00;;;;;;;7.27;5.13;;;;;;;;;;5105171;27;20221;-73
2022/10/07 14:27:39;;;;;;;5.83;5.23;;;;;;;;;;5125665;27;20515;-74
2022/10/07 14:30:23;;;;;;;7.80;4.33;;;;;;;;;;5100429;27;20179;-74
2022/10/07 14:35:40;;;;;;;5.57;5.00;;;;;;;;;;5126609;27;20225;-74
2022/10/07 14:38:24;;;;;;;7.33;4.47;;;;;;;;;;5123977;27;20192;-74
2022/10/07 14:40:50;;;;;;;8.87;5.57;;;;;;;;;;5123416;27;20182;-75
2022/10/07 14:43:16;;;;;;;9.00;5.13;;;;;;;;;;5108078;27;20203;-74
2022/10/07 14:45:42;;;;;;;7.10;4.97;;;;;;;;;;5105367;27;20268;-74
2022/10/07 14:48:11;;;;;;;9.13;5.43;;;;;;;;;;5108347;27;20187;-74
2022/10/07 14:50:36;;;;;;;6.80;4.90;;;;;;;;;;5106234;27;20199;-74
2022/10/07 14:53:01;;;;;;;10.67;6.07;;;;;;;;;;5099295;27;20179;-74
2022/10/07 14:55:28;;;;;;;8.07;5.27;;;;;;;;;;5117232;27;20235;-74
2022/10/07 14:57:53;;;;;;;7.07;6.00;;;;;;;;;;5108647;27;20183;-74
2022/10/07 15:00:20;;;;;;;7.63;6.20;;;;;;;;;;5120164;27;20229;-75